sensor_id;sensor_type;location;lat;lon;timestamp;temperature;humidity
13569;DHT22;6856;51.460;7.158;2023-07-09T00:00:23;30.10;38.00
13569;DHT22;6856;51.460;7.158;2023-07-09T00:02:59;30.00;38.10
13569;DHT22;6856;51.460;7.158;2023-07-09T00:05:33;30.00;38.20
13569;DHT22;6856;51.460;7.158;2023-07-09T00:08:21;30.00;38.20
13569;DHT22;6856;51.460;7.158;2023-07-09T00:11:00;30.00;38.70
13569;DHT22;6856;51.460;7.158;2023-07-09T00:13:35;29.90;38.50
13569;DHT22;6856;51.460;7.158;2023-07-09T00:16:14;29.90;38.50
13569;DHT22;6856;51.460;7.158;2023-07-09T00:18:52;29.90;38.60
13569;DHT22;6856;51.460;7.158;2023-07-09T00:21:26;29.90;38.40
13569;DHT22;6856;51.460;7.158;2023-07-09T00:24:06;29.80;38.60
13569;DHT22;6856;51.460;7.158;2023-07-09T00:26:42;29.80;38.70
13569;DHT22;6856;51.460;7.158;2023-07-09T00:29:17;29.80;38.80
13569;DHT22;6856;51.460;7.158;2023-07-09T00:31:52;29.80;38.90
13569;DHT22;6856;51.460;7.158;2023-07-09T00:34:26;29.70;38.80
13569;DHT22;6856;51.460;7.158;2023-07-09T00:37:01;29.80;39.20
13569;DHT22;6856;51.460;7.158;2023-07-09T00:39:35;29.70;39.30
13569;DHT22;6856;51.460;7.158;2023-07-09T00:42:12;29.70;39.30
13569;DHT22;6856;51.460;7.158;2023-07-09T00:44:51;29.60;39.60
13569;DHT22;6856;51.460;7.158;2023-07-09T00:47:39;29.60;39.60
13569;DHT22;6856;51.460;7.158;2023-07-09T00:50:27;29.50;39.90
13569;DHT22;6856;51.460;7.158;2023-07-09T00:53:13;29.50;40.10
13569;DHT22;6856;51.460;7.158;2023-07-09T00:55:54;29.50;40.70
13569;DHT22;6856;51.460;7.158;2023-07-09T00:58:34;29.40;40.10
13569;DHT22;6856;51.460;7.158;2023-07-09T01:01:13;29.40;40.10
13569;DHT22;6856;51.460;7.158;2023-07-09T01:03:54;29.40;40.30
13569;DHT22;6856;51.460;7.158;2023-07-09T01:06:33;29.30;39.90
13569;DHT22;6856;51.460;7.158;2023-07-09T01:09:10;29.30;40.40
13569;DHT22;6856;51.460;7.158;2023-07-09T01:11:45;29.20;40.40
13569;DHT22;6856;51.460;7.158;2023-07-09T01:14:21;29.20;40.50
13569;DHT22;6856;51.460;7.158;2023-07-09T01:17:01;29.10;40.70
13569;DHT22;6856;51.460;7.158;2023-07-09T01:19:41;29.10;40.80
13569;DHT22;6856;51.460;7.158;2023-07-09T01:22:19;29.00;40.90
13569;DHT22;6856;51.460;7.158;2023-07-09T01:24:57;29.00;41.00
13569;DHT22;6856;51.460;7.158;2023-07-09T01:27:36;29.00;41.20
13569;DHT22;6856;51.460;7.158;2023-07-09T01:30:30;28.90;41.10
13569;DHT22;6856;51.460;7.158;2023-07-09T01:33:08;28.80;41.30
13569;DHT22;6856;51.460;7.158;2023-07-09T01:35:43;28.80;41.20
13569;DHT22;6856;51.460;7.158;2023-07-09T01:38:19;28.80;41.30
13569;DHT22;6856;51.460;7.158;2023-07-09T01:40:53;28.70;41.30
13569;DHT22;6856;51.460;7.158;2023-07-09T01:43:27;28.70;41.50
13569;DHT22;6856;51.460;7.158;2023-07-09T01:46:02;28.60;41.60
13569;DHT22;6856;51.460;7.158;2023-07-09T01:48:38;28.60;41.70
13569;DHT22;6856;51.460;7.158;2023-07-09T01:51:15;28.50;41.70
13569;DHT22;6856;51.460;7.158;2023-07-09T01:53:52;28.50;41.90
13569;DHT22;6856;51.460;7.158;2023-07-09T01:56:26;28.50;42.00
13569;DHT22;6856;51.460;7.158;2023-07-09T01:59:01;28.40;42.10
13569;DHT22;6856;51.460;7.158;2023-07-09T02:01:36;28.40;42.00
13569;DHT22;6856;51.460;7.158;2023-07-09T02:04:10;28.30;42.20
13569;DHT22;6856;51.460;7.158;2023-07-09T02:06:44;28.40;42.20
13569;DHT22;6856;51.460;7.158;2023-07-09T02:09:22;28.30;42.20
13569;DHT22;6856;51.460;7.158;2023-07-09T02:11:56;28.30;42.40
13569;DHT22;6856;51.460;7.158;2023-07-09T02:14:30;28.20;42.30
13569;DHT22;6856;51.460;7.158;2023-07-09T02:17:04;28.20;42.50
13569;DHT22;6856;51.460;7.158;2023-07-09T02:19:40;28.10;42.50
13569;DHT22;6856;51.460;7.158;2023-07-09T02:22:14;28.10;42.60
13569;DHT22;6856;51.460;7.158;2023-07-09T02:24:50;28.00;42.60
13569;DHT22;6856;51.460;7.158;2023-07-09T02:27:24;28.00;42.70
13569;DHT22;6856;51.460;7.158;2023-07-09T02:30:00;28.00;42.80
13569;DHT22;6856;51.460;7.158;2023-07-09T02:32:36;28.00;43.00
13569;DHT22;6856;51.460;7.158;2023-07-09T02:35:13;27.90;43.10
13569;DHT22;6856;51.460;7.158;2023-07-09T02:37:46;27.80;43.20
13569;DHT22;6856;51.460;7.158;2023-07-09T02:40:23;27.80;43.20
13569;DHT22;6856;51.460;7.158;2023-07-09T02:42:56;27.80;43.30
13569;DHT22;6856;51.460;7.158;2023-07-09T02:45:30;27.80;43.40
13569;DHT22;6856;51.460;7.158;2023-07-09T02:48:08;27.70;43.40
13569;DHT22;6856;51.460;7.158;2023-07-09T02:50:42;27.70;43.60
13569;DHT22;6856;51.460;7.158;2023-07-09T02:53:17;27.60;43.50
13569;DHT22;6856;51.460;7.158;2023-07-09T02:55:52;27.60;43.60
13569;DHT22;6856;51.460;7.158;2023-07-09T02:58:26;27.60;43.80
13569;DHT22;6856;51.460;7.158;2023-07-09T03:01:00;27.50;43.80
13569;DHT22;6856;51.460;7.158;2023-07-09T03:03:35;27.50;43.90
13569;DHT22;6856;51.460;7.158;2023-07-09T03:06:09;27.50;44.00
13569;DHT22;6856;51.460;7.158;2023-07-09T03:08:45;27.40;43.90
13569;DHT22;6856;51.460;7.158;2023-07-09T03:11:21;27.40;44.00
13569;DHT22;6856;51.460;7.158;2023-07-09T03:13:55;27.40;44.20
13569;DHT22;6856;51.460;7.158;2023-07-09T03:16:32;27.40;44.30
13569;DHT22;6856;51.460;7.158;2023-07-09T03:19:07;27.30;44.30
13569;DHT22;6856;51.460;7.158;2023-07-09T03:21:41;27.30;44.20
13569;DHT22;6856;51.460;7.158;2023-07-09T03:24:16;27.30;44.40
13569;DHT22;6856;51.460;7.158;2023-07-09T03:26:53;27.30;44.40
13569;DHT22;6856;51.460;7.158;2023-07-09T03:29:27;27.20;44.40
13569;DHT22;6856;51.460;7.158;2023-07-09T03:32:02;27.20;44.50
13569;DHT22;6856;51.460;7.158;2023-07-09T03:34:37;27.20;44.60
13569;DHT22;6856;51.460;7.158;2023-07-09T03:37:11;27.20;44.50
13569;DHT22;6856;51.460;7.158;2023-07-09T03:39:45;27.10;44.60
13569;DHT22;6856;51.460;7.158;2023-07-09T03:42:21;27.10;44.70
13569;DHT22;6856;51.460;7.158;2023-07-09T03:44:55;27.10;44.80
13569;DHT22;6856;51.460;7.158;2023-07-09T03:47:29;27.00;44.90
13569;DHT22;6856;51.460;7.158;2023-07-09T03:50:04;27.00;44.80
13569;DHT22;6856;51.460;7.158;2023-07-09T03:52:40;27.00;45.10
13569;DHT22;6856;51.460;7.158;2023-07-09T03:55:15;26.90;45.60
13569;DHT22;6856;51.460;7.158;2023-07-09T03:57:51;26.90;45.10
13569;DHT22;6856;51.460;7.158;2023-07-09T04:00:25;26.90;45.20
13569;DHT22;6856;51.460;7.158;2023-07-09T04:03:00;26.90;45.30
13569;DHT22;6856;51.460;7.158;2023-07-09T04:05:36;26.80;45.40
13569;DHT22;6856;51.460;7.158;2023-07-09T04:08:11;26.80;45.50
13569;DHT22;6856;51.460;7.158;2023-07-09T04:10:45;26.80;45.40
13569;DHT22;6856;51.460;7.158;2023-07-09T04:13:21;26.80;45.50
13569;DHT22;6856;51.460;7.158;2023-07-09T04:15:55;26.80;45.70
13569;DHT22;6856;51.460;7.158;2023-07-09T04:18:29;26.70;45.80
13569;DHT22;6856;51.460;7.158;2023-07-09T04:21:03;26.70;45.80
13569;DHT22;6856;51.460;7.158;2023-07-09T04:23:37;26.70;45.80
13569;DHT22;6856;51.460;7.158;2023-07-09T04:26:13;26.70;45.90
13569;DHT22;6856;51.460;7.158;2023-07-09T04:28:49;26.70;46.10
13569;DHT22;6856;51.460;7.158;2023-07-09T04:31:24;26.70;46.10
13569;DHT22;6856;51.460;7.158;2023-07-09T04:33:58;26.70;46.20
13569;DHT22;6856;51.460;7.158;2023-07-09T04:36:32;26.60;46.30
13569;DHT22;6856;51.460;7.158;2023-07-09T04:39:09;26.70;46.40
13569;DHT22;6856;51.460;7.158;2023-07-09T04:41:43;26.70;46.40
13569;DHT22;6856;51.460;7.158;2023-07-09T04:44:20;26.70;46.60
13569;DHT22;6856;51.460;7.158;2023-07-09T04:46:55;26.70;46.50
13569;DHT22;6856;51.460;7.158;2023-07-09T04:49:32;26.70;46.60
13569;DHT22;6856;51.460;7.158;2023-07-09T04:52:07;26.70;46.90
13569;DHT22;6856;51.460;7.158;2023-07-09T04:54:43;26.70;46.90
13569;DHT22;6856;51.460;7.158;2023-07-09T04:57:17;26.70;46.90
13569;DHT22;6856;51.460;7.158;2023-07-09T04:59:53;26.80;47.20
13569;DHT22;6856;51.460;7.158;2023-07-09T05:02:26;26.80;47.10
13569;DHT22;6856;51.460;7.158;2023-07-09T05:05:01;26.80;47.20
13569;DHT22;6856;51.460;7.158;2023-07-09T05:07:35;26.80;47.40
13569;DHT22;6856;51.460;7.158;2023-07-09T05:10:09;26.80;47.70
13569;DHT22;6856;51.460;7.158;2023-07-09T05:12:48;26.80;47.50
13569;DHT22;6856;51.460;7.158;2023-07-09T05:15:25;26.90;47.70
13569;DHT22;6856;51.460;7.158;2023-07-09T05:18:00;26.90;47.40
13569;DHT22;6856;51.460;7.158;2023-07-09T05:20:34;27.00;47.60
13569;DHT22;6856;51.460;7.158;2023-07-09T05:23:09;27.00;47.60
13569;DHT22;6856;51.460;7.158;2023-07-09T05:25:43;26.80;47.50
13569;DHT22;6856;51.460;7.158;2023-07-09T05:28:17;27.10;47.50
13569;DHT22;6856;51.460;7.158;2023-07-09T05:30:52;27.10;47.50
13569;DHT22;6856;51.460;7.158;2023-07-09T05:33:28;27.10;47.70
13569;DHT22;6856;51.460;7.158;2023-07-09T05:36:03;27.20;47.80
13569;DHT22;6856;51.460;7.158;2023-07-09T05:38:37;27.20;48.70
13569;DHT22;6856;51.460;7.158;2023-07-09T05:41:12;27.30;47.70
13569;DHT22;6856;51.460;7.158;2023-07-09T05:43:50;27.30;48.20
13569;DHT22;6856;51.460;7.158;2023-07-09T05:46:27;27.40;48.40
13569;DHT22;6856;51.460;7.158;2023-07-09T05:49:02;27.40;48.20
13569;DHT22;6856;51.460;7.158;2023-07-09T05:51:36;27.50;48.40
13569;DHT22;6856;51.460;7.158;2023-07-09T05:54:12;27.60;48.40
13569;DHT22;6856;51.460;7.158;2023-07-09T05:56:46;27.60;48.10
13569;DHT22;6856;51.460;7.158;2023-07-09T05:59:21;27.60;47.80
13569;DHT22;6856;51.460;7.158;2023-07-09T06:01:57;27.70;47.70
13569;DHT22;6856;51.460;7.158;2023-07-09T06:04:32;27.80;47.90
13569;DHT22;6856;51.460;7.158;2023-07-09T06:07:08;27.80;47.90
13569;DHT22;6856;51.460;7.158;2023-07-09T06:09:42;27.90;48.90
13569;DHT22;6856;51.460;7.158;2023-07-09T06:12:20;28.00;48.30
13569;DHT22;6856;51.460;7.158;2023-07-09T06:14:54;28.10;48.20
13569;DHT22;6856;51.460;7.158;2023-07-09T06:17:29;28.10;48.70
13569;DHT22;6856;51.460;7.158;2023-07-09T06:20:04;28.20;48.00
13569;DHT22;6856;51.460;7.158;2023-07-09T06:22:39;28.30;47.90
13569;DHT22;6856;51.460;7.158;2023-07-09T06:25:13;28.30;47.80
13569;DHT22;6856;51.460;7.158;2023-07-09T06:27:47;28.40;47.70
13569;DHT22;6856;51.460;7.158;2023-07-09T06:30:20;28.40;47.90
13569;DHT22;6856;51.460;7.158;2023-07-09T06:32:56;28.50;48.00
13569;DHT22;6856;51.460;7.158;2023-07-09T06:35:30;28.60;47.60
13569;DHT22;6856;51.460;7.158;2023-07-09T06:38:04;28.60;47.60
13569;DHT22;6856;51.460;7.158;2023-07-09T06:40:42;28.70;48.00
13569;DHT22;6856;51.460;7.158;2023-07-09T06:43:16;28.80;48.10
13569;DHT22;6856;51.460;7.158;2023-07-09T06:45:55;28.90;48.20
13569;DHT22;6856;51.460;7.158;2023-07-09T06:48:33;29.00;48.20
13569;DHT22;6856;51.460;7.158;2023-07-09T06:51:07;29.00;47.80
13569;DHT22;6856;51.460;7.158;2023-07-09T06:53:41;29.10;47.60
13569;DHT22;6856;51.460;7.158;2023-07-09T06:56:20;29.20;47.30
13569;DHT22;6856;51.460;7.158;2023-07-09T06:58:54;29.30;47.50
13569;DHT22;6856;51.460;7.158;2023-07-09T07:01:28;29.30;47.40
13569;DHT22;6856;51.460;7.158;2023-07-09T07:04:04;29.40;47.30
13569;DHT22;6856;51.460;7.158;2023-07-09T07:06:38;29.50;47.40
13569;DHT22;6856;51.460;7.158;2023-07-09T07:09:12;29.60;47.20
13569;DHT22;6856;51.460;7.158;2023-07-09T07:11:46;29.70;47.60
13569;DHT22;6856;51.460;7.158;2023-07-09T07:14:20;29.80;47.50
13569;DHT22;6856;51.460;7.158;2023-07-09T07:16:56;29.90;47.40
13569;DHT22;6856;51.460;7.158;2023-07-09T07:19:31;30.00;48.00
13569;DHT22;6856;51.460;7.158;2023-07-09T07:22:05;30.10;47.30
13569;DHT22;6856;51.460;7.158;2023-07-09T07:24:39;30.20;47.80
13569;DHT22;6856;51.460;7.158;2023-07-09T07:27:13;30.30;47.40
13569;DHT22;6856;51.460;7.158;2023-07-09T07:29:47;30.40;47.30
13569;DHT22;6856;51.460;7.158;2023-07-09T07:32:22;30.50;47.10
13569;DHT22;6856;51.460;7.158;2023-07-09T07:34:57;30.60;47.50
13569;DHT22;6856;51.460;7.158;2023-07-09T07:37:31;30.70;47.40
13569;DHT22;6856;51.460;7.158;2023-07-09T07:40:06;30.80;47.50
13569;DHT22;6856;51.460;7.158;2023-07-09T07:42:42;30.90;47.40
13569;DHT22;6856;51.460;7.158;2023-07-09T07:45:16;31.00;47.70
13569;DHT22;6856;51.460;7.158;2023-07-09T07:47:50;31.20;47.00
13569;DHT22;6856;51.460;7.158;2023-07-09T07:50:26;31.30;46.90
13569;DHT22;6856;51.460;7.158;2023-07-09T07:53:01;31.40;46.40
13569;DHT22;6856;51.460;7.158;2023-07-09T07:55:36;31.50;46.30
13569;DHT22;6856;51.460;7.158;2023-07-09T07:58:11;31.60;46.40
13569;DHT22;6856;51.460;7.158;2023-07-09T08:00:46;31.70;46.70
13569;DHT22;6856;51.460;7.158;2023-07-09T08:03:20;31.80;46.80
13569;DHT22;6856;51.460;7.158;2023-07-09T08:05:55;31.90;46.50
13569;DHT22;6856;51.460;7.158;2023-07-09T08:08:33;32.00;45.80
13569;DHT22;6856;51.460;7.158;2023-07-09T08:11:07;32.10;45.60
13569;DHT22;6856;51.460;7.158;2023-07-09T08:13:42;32.20;45.90
13569;DHT22;6856;51.460;7.158;2023-07-09T08:16:17;32.30;45.20
13569;DHT22;6856;51.460;7.158;2023-07-09T08:18:51;32.40;45.50
13569;DHT22;6856;51.460;7.158;2023-07-09T08:21:38;32.50;45.80
13569;DHT22;6856;51.460;7.158;2023-07-09T08:24:12;32.60;45.30
13569;DHT22;6856;51.460;7.158;2023-07-09T08:26:47;32.70;45.60
13569;DHT22;6856;51.460;7.158;2023-07-09T08:29:20;32.80;45.10
13569;DHT22;6856;51.460;7.158;2023-07-09T08:31:54;32.90;44.50
13569;DHT22;6856;51.460;7.158;2023-07-09T08:34:29;33.10;44.30
13569;DHT22;6856;51.460;7.158;2023-07-09T08:37:05;33.10;44.80
13569;DHT22;6856;51.460;7.158;2023-07-09T08:39:39;33.30;44.50
13569;DHT22;6856;51.460;7.158;2023-07-09T08:42:17;33.30;44.10
13569;DHT22;6856;51.460;7.158;2023-07-09T08:45:11;33.50;43.70
13569;DHT22;6856;51.460;7.158;2023-07-09T08:48:00;33.60;43.60
13569;DHT22;6856;51.460;7.158;2023-07-09T08:50:41;33.70;42.60
13569;DHT22;6856;51.460;7.158;2023-07-09T08:53:24;33.80;43.40
13569;DHT22;6856;51.460;7.158;2023-07-09T08:56:08;33.90;43.00
13569;DHT22;6856;51.460;7.158;2023-07-09T08:58:44;34.00;42.80
13569;DHT22;6856;51.460;7.158;2023-07-09T09:01:22;34.10;42.70
13569;DHT22;6856;51.460;7.158;2023-07-09T09:04:04;34.30;42.60
13569;DHT22;6856;51.460;7.158;2023-07-09T09:06:51;34.40;42.30
13569;DHT22;6856;51.460;7.158;2023-07-09T09:09:38;34.50;42.00
13569;DHT22;6856;51.460;7.158;2023-07-09T09:12:16;34.60;41.10
13569;DHT22;6856;51.460;7.158;2023-07-09T09:14:58;34.70;41.30
13569;DHT22;6856;51.460;7.158;2023-07-09T09:17:38;34.80;41.90
13569;DHT22;6856;51.460;7.158;2023-07-09T09:20:19;34.90;40.80
13569;DHT22;6856;51.460;7.158;2023-07-09T09:23:12;35.00;41.70
13569;DHT22;6856;51.460;7.158;2023-07-09T09:25:52;35.10;40.50
13569;DHT22;6856;51.460;7.158;2023-07-09T09:28:44;35.20;40.80
13569;DHT22;6856;51.460;7.158;2023-07-09T09:31:23;35.40;40.70
13569;DHT22;6856;51.460;7.158;2023-07-09T09:33:58;35.40;40.10
13569;DHT22;6856;51.460;7.158;2023-07-09T09:36:37;35.50;40.30
13569;DHT22;6856;51.460;7.158;2023-07-09T09:39:10;35.60;40.50
13569;DHT22;6856;51.460;7.158;2023-07-09T09:41:46;35.70;39.90
13569;DHT22;6856;51.460;7.158;2023-07-09T09:44:24;35.70;39.60
13569;DHT22;6856;51.460;7.158;2023-07-09T09:47:00;35.80;39.70
13569;DHT22;6856;51.460;7.158;2023-07-09T09:49:39;35.90;39.50
13569;DHT22;6856;51.460;7.158;2023-07-09T09:52:15;36.00;39.50
13569;DHT22;6856;51.460;7.158;2023-07-09T09:54:52;36.10;39.40
13569;DHT22;6856;51.460;7.158;2023-07-09T09:57:30;36.20;38.90
13569;DHT22;6856;51.460;7.158;2023-07-09T10:00:05;36.30;39.40
13569;DHT22;6856;51.460;7.158;2023-07-09T10:02:47;36.30;39.60
13569;DHT22;6856;51.460;7.158;2023-07-09T10:05:29;36.40;39.30
13569;DHT22;6856;51.460;7.158;2023-07-09T10:08:08;36.50;39.20
13569;DHT22;6856;51.460;7.158;2023-07-09T10:10:49;36.60;38.50
13569;DHT22;6856;51.460;7.158;2023-07-09T10:13:30;36.70;39.20
13569;DHT22;6856;51.460;7.158;2023-07-09T10:16:13;36.80;38.10
13569;DHT22;6856;51.460;7.158;2023-07-09T10:18:56;36.80;37.70
13569;DHT22;6856;51.460;7.158;2023-07-09T10:21:42;36.90;38.80
13569;DHT22;6856;51.460;7.158;2023-07-09T10:24:34;37.00;37.80
13569;DHT22;6856;51.460;7.158;2023-07-09T10:27:24;37.10;37.90
13569;DHT22;6856;51.460;7.158;2023-07-09T10:30:25;37.20;37.20
13569;DHT22;6856;51.460;7.158;2023-07-09T10:33:20;37.30;37.60
13569;DHT22;6856;51.460;7.158;2023-07-09T10:36:03;37.40;37.20
13569;DHT22;6856;51.460;7.158;2023-07-09T10:38:56;37.40;38.10
13569;DHT22;6856;51.460;7.158;2023-07-09T10:41:37;37.60;37.60
13569;DHT22;6856;51.460;7.158;2023-07-09T10:44:16;37.70;37.50
13569;DHT22;6856;51.460;7.158;2023-07-09T10:46:58;37.80;36.50
13569;DHT22;6856;51.460;7.158;2023-07-09T10:49:41;37.90;37.10
13569;DHT22;6856;51.460;7.158;2023-07-09T10:52:22;38.00;37.00
13569;DHT22;6856;51.460;7.158;2023-07-09T10:55:04;38.10;35.60
13569;DHT22;6856;51.460;7.158;2023-07-09T10:57:47;38.20;35.00
13569;DHT22;6856;51.460;7.158;2023-07-09T11:00:33;38.20;35.20
13569;DHT22;6856;51.460;7.158;2023-07-09T11:03:17;38.30;35.20
13569;DHT22;6856;51.460;7.158;2023-07-09T11:05:53;38.30;34.40
13569;DHT22;6856;51.460;7.158;2023-07-09T11:08:33;38.30;34.70
13569;DHT22;6856;51.460;7.158;2023-07-09T11:11:14;38.40;34.70
13569;DHT22;6856;51.460;7.158;2023-07-09T11:13:58;38.40;34.80
13569;DHT22;6856;51.460;7.158;2023-07-09T11:16:38;38.50;35.20
13569;DHT22;6856;51.460;7.158;2023-07-09T11:19:18;38.50;34.50
13569;DHT22;6856;51.460;7.158;2023-07-09T11:22:03;38.60;34.90
13569;DHT22;6856;51.460;7.158;2023-07-09T11:24:45;38.70;33.90
13569;DHT22;6856;51.460;7.158;2023-07-09T11:27:25;38.70;34.20
13569;DHT22;6856;51.460;7.158;2023-07-09T11:30:03;38.80;34.10
13569;DHT22;6856;51.460;7.158;2023-07-09T11:32:56;38.90;33.70
13569;DHT22;6856;51.460;7.158;2023-07-09T11:36:05;39.00;34.30
13569;DHT22;6856;51.460;7.158;2023-07-09T11:38:44;39.10;33.40
13569;DHT22;6856;51.460;7.158;2023-07-09T11:41:34;39.20;33.20
13569;DHT22;6856;51.460;7.158;2023-07-09T11:44:16;39.20;33.50
13569;DHT22;6856;51.460;7.158;2023-07-09T11:47:01;39.30;33.70
13569;DHT22;6856;51.460;7.158;2023-07-09T11:49:52;39.30;33.40
13569;DHT22;6856;51.460;7.158;2023-07-09T11:52:34;39.40;32.90
13569;DHT22;6856;51.460;7.158;2023-07-09T11:55:22;39.40;32.70
13569;DHT22;6856;51.460;7.158;2023-07-09T11:58:01;39.50;32.60
13569;DHT22;6856;51.460;7.158;2023-07-09T12:00:41;39.50;32.60
13569;DHT22;6856;51.460;7.158;2023-07-09T12:03:20;39.60;32.80
13569;DHT22;6856;51.460;7.158;2023-07-09T12:06:00;39.60;33.40
13569;DHT22;6856;51.460;7.158;2023-07-09T12:08:40;39.70;32.00
13569;DHT22;6856;51.460;7.158;2023-07-09T12:11:20;39.70;32.90
13569;DHT22;6856;51.460;7.158;2023-07-09T12:14:00;39.80;32.10
13569;DHT22;6856;51.460;7.158;2023-07-09T12:16:37;39.90;32.60
13569;DHT22;6856;51.460;7.158;2023-07-09T12:19:15;39.90;32.10
13569;DHT22;6856;51.460;7.158;2023-07-09T12:21:56;39.90;31.80
13569;DHT22;6856;51.460;7.158;2023-07-09T12:24:40;40.00;32.20
13569;DHT22;6856;51.460;7.158;2023-07-09T12:27:19;40.10;32.10
13569;DHT22;6856;51.460;7.158;2023-07-09T12:29:56;40.10;31.50
13569;DHT22;6856;51.460;7.158;2023-07-09T12:32:32;40.10;31.40
13569;DHT22;6856;51.460;7.158;2023-07-09T12:35:16;40.10;31.10
13569;DHT22;6856;51.460;7.158;2023-07-09T12:37:54;40.10;31.30
13569;DHT22;6856;51.460;7.158;2023-07-09T12:40:32;40.20;31.10
13569;DHT22;6856;51.460;7.158;2023-07-09T12:43:09;40.20;31.30
13569;DHT22;6856;51.460;7.158;2023-07-09T12:45:44;40.10;31.20
13569;DHT22;6856;51.460;7.158;2023-07-09T12:48:22;40.10;31.10
13569;DHT22;6856;51.460;7.158;2023-07-09T12:50:59;40.20;31.20
13569;DHT22;6856;51.460;7.158;2023-07-09T12:53:36;40.10;30.80
13569;DHT22;6856;51.460;7.158;2023-07-09T12:56:13;40.10;30.80
13569;DHT22;6856;51.460;7.158;2023-07-09T12:58:49;40.10;30.80
13569;DHT22;6856;51.460;7.158;2023-07-09T13:01:23;40.10;30.90
13569;DHT22;6856;51.460;7.158;2023-07-09T13:04:01;40.10;31.80
13569;DHT22;6856;51.460;7.158;2023-07-09T13:06:36;40.00;30.80
13569;DHT22;6856;51.460;7.158;2023-07-09T13:09:16;40.00;30.70
13569;DHT22;6856;51.460;7.158;2023-07-09T13:11:57;39.90;31.30
13569;DHT22;6856;51.460;7.158;2023-07-09T13:14:32;39.90;30.90
13569;DHT22;6856;51.460;7.158;2023-07-09T13:17:07;39.80;31.40
13569;DHT22;6856;51.460;7.158;2023-07-09T13:19:43;39.80;31.30
13569;DHT22;6856;51.460;7.158;2023-07-09T13:22:18;39.70;31.60
13569;DHT22;6856;51.460;7.158;2023-07-09T13:24:52;39.70;31.50
13569;DHT22;6856;51.460;7.158;2023-07-09T13:27:28;39.60;31.50
13569;DHT22;6856;51.460;7.158;2023-07-09T13:30:03;39.60;31.40
13569;DHT22;6856;51.460;7.158;2023-07-09T13:32:38;39.60;32.00
13569;DHT22;6856;51.460;7.158;2023-07-09T13:35:14;39.50;32.50
13569;DHT22;6856;51.460;7.158;2023-07-09T13:37:49;39.50;31.80
13569;DHT22;6856;51.460;7.158;2023-07-09T13:40:23;39.50;31.70
13569;DHT22;6856;51.460;7.158;2023-07-09T13:42:59;39.40;32.10
13569;DHT22;6856;51.460;7.158;2023-07-09T13:45:33;39.40;32.10
13569;DHT22;6856;51.460;7.158;2023-07-09T13:48:14;39.30;32.40
13569;DHT22;6856;51.460;7.158;2023-07-09T13:50:51;39.30;32.50
13569;DHT22;6856;51.460;7.158;2023-07-09T13:53:29;39.20;32.40
13569;DHT22;6856;51.460;7.158;2023-07-09T13:56:06;39.20;32.90
13569;DHT22;6856;51.460;7.158;2023-07-09T13:58:41;39.20;33.40
13569;DHT22;6856;51.460;7.158;2023-07-09T14:01:18;39.10;32.80
13569;DHT22;6856;51.460;7.158;2023-07-09T14:03:57;39.10;34.40
13569;DHT22;6856;51.460;7.158;2023-07-09T14:06:32;39.00;33.90
13569;DHT22;6856;51.460;7.158;2023-07-09T14:09:06;39.00;34.20
13569;DHT22;6856;51.460;7.158;2023-07-09T14:11:43;39.00;34.50
13569;DHT22;6856;51.460;7.158;2023-07-09T14:14:21;38.90;34.40
13569;DHT22;6856;51.460;7.158;2023-07-09T14:16:57;38.90;34.50
13569;DHT22;6856;51.460;7.158;2023-07-09T14:19:31;38.90;34.80
13569;DHT22;6856;51.460;7.158;2023-07-09T14:22:20;38.80;35.00
13569;DHT22;6856;51.460;7.158;2023-07-09T14:24:58;38.70;35.50
13569;DHT22;6856;51.460;7.158;2023-07-09T14:27:33;38.70;35.40
13569;DHT22;6856;51.460;7.158;2023-07-09T14:30:14;38.60;35.70
13569;DHT22;6856;51.460;7.158;2023-07-09T14:32:50;38.50;36.40
13569;DHT22;6856;51.460;7.158;2023-07-09T14:35:25;38.50;37.00
13569;DHT22;6856;51.460;7.158;2023-07-09T14:37:59;38.40;37.50
13569;DHT22;6856;51.460;7.158;2023-07-09T14:40:34;38.30;37.80
13569;DHT22;6856;51.460;7.158;2023-07-09T14:43:10;38.20;38.60
13569;DHT22;6856;51.460;7.158;2023-07-09T14:45:48;38.10;37.80
13569;DHT22;6856;51.460;7.158;2023-07-09T14:48:23;37.90;36.90
13569;DHT22;6856;51.460;7.158;2023-07-09T14:50:57;37.70;36.80
13569;DHT22;6856;51.460;7.158;2023-07-09T14:53:32;37.40;36.50
13569;DHT22;6856;51.460;7.158;2023-07-09T14:56:06;37.10;36.10
13569;DHT22;6856;51.460;7.158;2023-07-09T14:58:42;36.80;35.90
13569;DHT22;6856;51.460;7.158;2023-07-09T15:01:17;36.40;36.70
13569;DHT22;6856;51.460;7.158;2023-07-09T15:03:53;36.10;38.10
13569;DHT22;6856;51.460;7.158;2023-07-09T15:06:27;35.60;38.50
13569;DHT22;6856;51.460;7.158;2023-07-09T15:09:02;35.00;39.20
13569;DHT22;6856;51.460;7.158;2023-07-09T15:11:36;34.50;39.60
13569;DHT22;6856;51.460;7.158;2023-07-09T15:14:11;34.00;40.40
13569;DHT22;6856;51.460;7.158;2023-07-09T15:16:49;33.50;40.90
13569;DHT22;6856;51.460;7.158;2023-07-09T15:19:23;33.10;41.40
13569;DHT22;6856;51.460;7.158;2023-07-09T15:21:58;32.70;42.20
13569;DHT22;6856;51.460;7.158;2023-07-09T15:24:34;32.30;42.80
13569;DHT22;6856;51.460;7.158;2023-07-09T15:27:09;31.90;43.50
13569;DHT22;6856;51.460;7.158;2023-07-09T15:29:42;31.50;43.80
13569;DHT22;6856;51.460;7.158;2023-07-09T15:32:18;31.10;44.70
13569;DHT22;6856;51.460;7.158;2023-07-09T15:34:52;30.80;45.30
13569;DHT22;6856;51.460;7.158;2023-07-09T15:37:25;30.60;45.90
13569;DHT22;6856;51.460;7.158;2023-07-09T15:39:59;30.40;46.30
13569;DHT22;6856;51.460;7.158;2023-07-09T15:42:32;30.30;47.10
13569;DHT22;6856;51.460;7.158;2023-07-09T15:45:07;30.20;47.60
13569;DHT22;6856;51.460;7.158;2023-07-09T15:47:44;30.20;47.80
13569;DHT22;6856;51.460;7.158;2023-07-09T15:50:20;30.10;47.50
13569;DHT22;6856;51.460;7.158;2023-07-09T15:52:56;30.10;47.90
13569;DHT22;6856;51.460;7.158;2023-07-09T15:55:30;30.00;48.00
13569;DHT22;6856;51.460;7.158;2023-07-09T15:58:04;30.00;48.20
13569;DHT22;6856;51.460;7.158;2023-07-09T16:00:38;29.90;48.40
13569;DHT22;6856;51.460;7.158;2023-07-09T16:03:13;30.00;48.60
13569;DHT22;6856;51.460;7.158;2023-07-09T16:05:53;29.90;48.80
13569;DHT22;6856;51.460;7.158;2023-07-09T16:08:27;29.90;48.60
13569;DHT22;6856;51.460;7.158;2023-07-09T16:11:03;29.90;48.80
13569;DHT22;6856;51.460;7.158;2023-07-09T16:13:42;30.00;49.00
13569;DHT22;6856;51.460;7.158;2023-07-09T16:16:19;30.00;49.00
13569;DHT22;6856;51.460;7.158;2023-07-09T16:18:56;30.00;49.40
13569;DHT22;6856;51.460;7.158;2023-07-09T16:21:31;30.00;49.00
13569;DHT22;6856;51.460;7.158;2023-07-09T16:24:16;30.10;49.30
13569;DHT22;6856;51.460;7.158;2023-07-09T16:26:53;30.00;49.50
13569;DHT22;6856;51.460;7.158;2023-07-09T16:29:28;30.00;49.30
13569;DHT22;6856;51.460;7.158;2023-07-09T16:32:04;30.00;49.50
13569;DHT22;6856;51.460;7.158;2023-07-09T16:34:40;30.00;49.60
13569;DHT22;6856;51.460;7.158;2023-07-09T16:37:17;30.00;49.60
13569;DHT22;6856;51.460;7.158;2023-07-09T16:39:55;30.00;49.70
13569;DHT22;6856;51.460;7.158;2023-07-09T16:42:29;30.00;49.80
13569;DHT22;6856;51.460;7.158;2023-07-09T16:45:04;30.00;50.40
13569;DHT22;6856;51.460;7.158;2023-07-09T16:47:38;30.00;50.10